logo
Search for airport 
image banner adimage banner adimage banner ad
image banner ad

SVJW - Hacienda Santa Fe

Located in Zulia, Venezuela

ICAO - , IATA -

Data provided by Airmate  

General information

Coordinates: N9°30'0" W72°34'60"
Elevation is 67 feet MSL.
 
View others Airports in Zulia

Operational data

Special qualification required
Current time UTC:
Current local time:
Weather at : - ( 0 km )
METAR: SAZS 191510Z 32008KT 9000 -SN BKN030 02/M02 Q1015
View NOTAMs / SUP AIP / TFR affecting this airport [VIEW]
Communications frequencies: [VIEW]

Runways:

RWY identifierQFULength (ft)Width (ft)SurfaceLDA (ft)
0400UNK
2200UNK

Airport contact information

Address: Zulia Venezuela

Satellite view of SVJW